Time;durP1;ratioP1;P1;durP2;ratioP2;P2;SDS_P1;SDS_P2;PMS_P1;PMS_P2;Temp;Humidity;BMP_temperature;BMP_pressure;BME280_temperature;BME280_humidity;BME280_pressure;Samples;Min_cycle;Max_cycle;Signal;HPM_P1;HPM_P2
2022/05/04 00:02:37;;;;;;;;;;;;;;;-145.06;0.00;60892.56;4867434;28;20386;-87
2022/05/04 00:05:16;;;;;;;;;;;;;;;-145.06;0.00;60892.56;4851493;28;20350;-86
2022/05/04 00:07:54;;;;;;;;;;;;;;;-145.06;0.00;60892.56;4857547;28;19921;-86
2022/05/04 00:10:34;;;;;;;;;;;;;;;-145.06;0.00;60892.56;4868612;28;19925;-87
2022/05/04 00:13:13;;;;;;;;;;;;;;;-145.06;0.00;60892.56;4862727;28;19968;-87
2022/05/04 00:15:52;;;;;;;;;;;;;;;-145.06;0.00;60892.56;4867185;28;19921;-87
2022/05/04 00:18:32;;;;;;;;;;;;;;;-145.06;0.00;60892.56;4860466;28;19917;-87
2022/05/04 00:21:10;;;;;;;;;;;;;;;-145.06;0.00;60892.56;4850930;28;19917;-87
2022/05/04 00:23:49;;;;;;;;;;;;;;;-145.06;0.00;60892.56;4861185;28;19920;-87
2022/05/04 00:26:28;;;;;;;;;;;;;;;-145.06;0.00;60892.56;4857365;28;20016;-87
2022/05/04 00:29:07;;;;;;;;;;;;;;;-145.06;0.00;60892.56;4865760;28;19921;-87
2022/05/04 00:31:46;;;;;;;;;;;;;;;-145.06;0.00;60892.56;4856069;28;19917;-87
2022/05/04 00:34:26;;;;;;;;;;;;;;;-145.06;0.00;60892.56;4857417;28;20335;-87
2022/05/04 00:37:05;;;;;;;;;;;;;;;-145.06;0.00;60892.56;4852089;28;19921;-86
2022/05/04 00:39:44;;;;;;;;;;;;;;;-145.06;0.00;60892.56;4860991;28;19929;-88
2022/05/04 00:42:23;;;;;;;;;;;;;;;-145.06;0.00;60892.56;4855901;28;19917;-87
2022/05/04 00:45:02;;;;;;;;;;;;;;;-145.06;0.00;60892.56;4867518;28;19916;-87
2022/05/04 00:47:41;;;;;;;;;;;;;;;-145.06;0.00;60892.56;4853628;28;19948;-87
2022/05/04 00:50:20;;;;;;;;;;;;;;;-145.06;0.00;60892.56;4854503;28;19917;-87
2022/05/04 00:52:59;;;;;;;;;;;;;;;-145.06;0.00;60892.56;4866846;28;19913;-87
2022/05/04 00:55:38;;;;;;;;;;;;;;;-145.06;0.00;60892.56;4847579;28;19945;-87
2022/05/04 01:01:16;;;;;;;;;;;;;;;-145.06;0.00;60892.56;4856308;28;19917;-87
2022/05/04 01:03:55;;;;;;;;;;;;;;;-145.06;0.00;60892.56;4857664;28;19917;-86
2022/05/04 01:06:34;;;;;;;;;;;;;;;-145.06;0.00;60892.56;4878127;28;20651;-87
2022/05/04 01:09:14;;;;;;;;;;;;;;;-145.06;0.00;60892.56;4867470;28;19929;-87
2022/05/04 01:11:52;;;;;;;;;;;;;;;-145.06;0.00;60892.56;4868926;28;20000;-88
2022/05/04 01:14:31;;;;;;;;;;;;;;;-145.06;0.00;60892.56;4858440;28;19921;-87
2022/05/04 01:17:10;;;;;;;;;;;;;;;-145.06;0.00;60892.56;4871025;28;19917;-87
2022/05/04 01:19:49;;;;;;;;;;;;;;;-145.06;0.00;60892.56;4853227;28;20397;-87
2022/05/04 01:22:28;;;;;;;;;;;;;;;-145.06;0.00;60892.56;4862007;28;19999;-86
2022/05/04 01:25:07;;;;;;;;;;;;;;;-145.06;0.00;60892.56;4861003;28;19913;-86
2022/05/04 01:27:46;;;;;;;;;;;;;;;-145.06;0.00;60892.56;4852378;28;19918;-86
2022/05/04 01:30:25;;;;;;;;;;;;;;;-145.06;0.00;60892.56;4851278;28;19917;-86
2022/05/04 01:33:05;;;;;;;;;;;;;;;-145.06;0.00;60892.56;4856253;28;20300;-86
2022/05/04 01:35:44;;;;;;;;;;;;;;;-145.06;0.00;60892.56;4858643;28;20019;-87
2022/05/04 01:38:22;;;;;;;;;;;;;;;-145.06;0.00;60892.56;4864032;28;20260;-87
2022/05/04 01:41:02;;;;;;;;;;;;;;;-145.06;0.00;60892.56;4847917;28;19917;-86
2022/05/04 01:43:41;;;;;;;;;;;;;;;-145.06;0.00;60892.56;4849894;28;19913;-86
2022/05/04 01:46:21;;;;;;;;;;;;;;;-145.06;0.00;60892.56;4862233;28;19921;-88
2022/05/04 01:49:00;;;;;;;;;;;;;;;-145.06;0.00;60892.56;4853869;28;19921;-86
2022/05/04 01:51:39;;;;;;;;;;;;;;;-145.06;0.00;60892.56;4852844;28;19917;-87
2022/05/04 01:54:18;;;;;;;;;;;;;;;-145.06;0.00;60892.56;4873159;28;19924;-87
2022/05/04 01:56:57;;;;;;;;;;;;;;;-145.06;0.00;60892.56;4858662;28;20359;-87
2022/05/04 01:59:36;;;;;;;;;;;;;;;-145.06;0.00;60892.56;4867867;28;19917;-86
2022/05/04 02:02:15;;;;;;;;;;;;;;;-145.06;0.00;60892.56;4867896;28;19917;-85
2022/05/04 02:04:54;;;;;;;;;;;;;;;-145.06;0.00;60892.56;4865797;28;19917;-86
2022/05/04 02:07:34;;;;;;;;;;;;;;;-145.06;0.00;60892.56;4857806;28;19921;-86
2022/05/04 02:10:13;;;;;;;;;;;;;;;187.52;0.00;60892.56;4878896;28;19925;-87
2022/05/04 02:12:53;;;;;;;;;;;;;;;-145.06;0.00;60892.56;4878343;28;19917;-87
2022/05/04 02:15:31;;;;;;;;;;;;;;;-145.06;0.00;60892.56;4869399;28;20370;-87
2022/05/04 02:18:10;;;;;;;;;;;;;;;-145.06;0.00;60892.56;4858363;28;19917;-86
2022/05/04 02:20:49;;;;;;;;;;;;;;;-145.06;0.00;60892.56;4867731;28;19921;-87
2022/05/04 02:23:28;;;;;;;;;;;;;;;-145.06;0.00;60892.56;4867585;28;19952;-87
2022/05/04 02:26:08;;;;;;;;;;;;;;;-145.06;0.00;60892.56;4870096;28;19917;-87
2022/05/04 02:28:46;;;;;;;;;;;;;;;-145.06;0.00;60892.56;4859519;28;19920;-87
2022/05/04 02:31:25;;;;;;;;;;;;;;;-145.06;0.00;60892.56;4866499;28;20366;-87
2022/05/04 02:34:04;;;;;;;;;;;;;;;-145.06;0.00;60892.56;4856559;28;19917;-86
2022/05/04 02:39:41;;;;;;;;;;;;;;;-145.06;0.00;60892.56;4860721;28;20253;-85
2022/05/04 02:42:20;;;;;;;;;;;;;;;-145.06;0.00;60892.56;4870850;28;19960;-86
2022/05/04 02:44:59;;;;;;;;;;;;;;;-145.06;0.00;60892.56;4856915;28;19917;-86
2022/05/04 02:47:39;;;;;;;;;;;;;;;-145.06;0.00;60892.56;4857102;28;20185;-86
2022/05/04 02:50:18;;;;;;;;;;;;;;;-145.06;0.00;60892.56;4861450;28;19921;-88
2022/05/04 02:52:57;;;;;;;;;;;;;;;-145.06;0.00;60892.56;4864823;28;19948;-87
2022/05/04 02:55:36;;;;;;;;;;;;;;;-145.06;0.00;60892.56;4860057;28;19913;-85
2022/05/04 02:58:15;;;;;;;;;;;;;;;-145.06;0.00;60892.56;4860821;28;19921;-85
2022/05/04 03:00:54;;;;;;;;;;;;;;;-145.06;0.00;60892.56;4858438;28;19921;-85
2022/05/04 03:03:33;;;;;;;;;;;;;;;-145.06;0.00;60892.56;4867724;28;20330;-87
2022/05/04 03:06:12;;;;;;;;;;;;;;;-145.06;0.00;60892.56;4855623;28;19918;-86
2022/05/04 03:08:51;;;;;;;;;;;;;;;-145.06;0.00;60892.56;4865878;28;20393;-87
2022/05/04 03:14:28;;;;;;;;;;;;;;;-145.06;0.00;60892.56;4860322;28;19913;-86
2022/05/04 03:17:07;;;;;;;;;;;;;;;-145.06;0.00;60892.56;4872749;28;20430;-87
2022/05/04 03:19:46;;;;;;;;;;;;;;;-145.06;0.00;60892.56;4859956;28;19913;-86
2022/05/04 03:22:25;;;;;;;;;;;;;;;-145.06;0.00;60892.56;4854427;28;19917;-86
2022/05/04 03:25:08;;;;;;;;;;;;;;;-145.06;0.00;60892.56;4865125;28;19937;-86
2022/05/04 03:27:46;;;;;;;;;;;;;;;-145.06;0.00;60892.56;4864737;28;19917;-86
2022/05/04 03:30:26;;;;;;;;;;;;;;;9.38;0.00;60892.56;4852316;28;20012;-87
2022/05/04 03:33:05;;;;;;;;;;;;;;;9.38;0.00;60892.56;4868578;28;19921;-87
2022/05/04 03:35:44;;;;;;;;;;;;;;;9.38;0.00;60892.56;4857674;28;19921;-87
2022/05/04 03:38:22;;;;;;;;;;;;;;;9.38;0.00;60892.56;4868624;28;19917;-86
2022/05/04 03:41:01;;;;;;;;;;;;;;;9.38;0.00;60892.56;4869649;28;19917;-86
2022/05/04 03:43:40;;;;;;;;;;;;;;;9.38;0.00;60892.56;4865262;28;19937;-87
2022/05/04 03:46:21;;;;;;;;;;;;;;;9.38;0.00;60892.56;4858811;28;19920;-86
2022/05/04 03:49:00;;;;;;;;;;;;;;;9.38;0.00;60892.56;4862899;28;20362;-87
2022/05/04 03:51:40;;;;;;;;;;;;;;;9.38;0.00;60892.56;4856799;28;19917;-86
2022/05/04 03:54:19;;;;;;;;;;;;;;;9.38;0.00;60892.56;4869259;28;20004;-86
2022/05/04 03:56:58;;;;;;;;;;;;;;;9.38;0.00;60892.56;4849117;28;19917;-87
2022/05/04 03:59:37;;;;;;;;;;;;;;;9.38;0.00;60892.56;4861175;28;19917;-87
2022/05/04 04:02:16;;;;;;;;;;;;;;;9.38;0.00;60892.56;4867439;28;19921;-87
2022/05/04 04:04:55;;;;;;;;;;;;;;;9.38;0.00;60892.56;4853986;28;20676;-87
2022/05/04 04:07:34;;;;;;;;;;;;;;;9.38;0.00;60892.56;4853120;28;19921;-87
2022/05/04 04:10:13;;;;;;;;;;;;;;;10.68;0.00;60892.56;4851847;28;20000;-88
2022/05/04 04:12:52;;;;;;;;;;;;;;;9.18;0.00;60892.56;4869824;28;20259;-87
2022/05/04 04:15:31;;;;;;;;;;;;;;;9.17;0.00;60892.56;4864665;28;19917;-88
2022/05/04 04:18:10;;;;;;;;;;;;;;;9.38;0.00;60892.56;4864313;28;19956;-87
2022/05/04 04:23:47;;;;;;;;;;;;;;;9.16;0.00;60892.56;4861994;28;20043;-88
2022/05/04 04:26:26;;;;;;;;;;;;;;;9.38;0.00;60892.56;4862729;28;19913;-87
2022/05/04 04:29:05;;;;;;;;;;;;;;;9.18;0.00;60892.56;4872885;28;19925;-87
2022/05/04 04:31:44;;;;;;;;;;;;;;;-145.06;0.00;60892.56;4871042;28;19917;-86
2022/05/04 04:34:23;;;;;;;;;;;;;;;-145.06;0.00;60892.56;4854914;28;19917;-88
2022/05/04 04:37:02;;;;;;;;;;;;;;;9.38;0.00;60892.56;4873438;28;19917;-89
2022/05/04 04:39:41;;;;;;;;;;;;;;;9.38;0.00;60892.56;4854416;28;19921;-89
2022/05/04 04:42:20;;;;;;;;;;;;;;;9.38;0.00;60892.56;4870867;28;20259;-88
2022/05/04 04:44:59;;;;;;;;;;;;;;;9.38;0.00;60892.56;4853036;28;20613;-88
2022/05/04 04:47:38;;;;;;;;;;;;;;;9.38;0.00;60892.56;4853690;28;19917;-88
2022/05/04 04:50:17;;;;;;;;;;;;;;;9.32;0.00;60892.56;4866564;28;19929;-86
2022/05/04 04:52:56;;;;;;;;;;;;;;;9.38;0.00;60892.56;4855978;28;19921;-87
2022/05/04 04:55:35;;;;;;;;;;;;;;;9.38;0.00;60892.56;4869363;28;19917;-85
2022/05/04 04:58:14;;;;;;;;;;;;;;;-145.06;0.00;60892.56;4858678;28;20434;-87
2022/05/04 05:00:53;;;;;;;;;;;;;;;-145.06;0.00;60892.56;4867376;28;19921;-86
2022/05/04 05:03:32;;;;;;;;;;;;;;;-145.06;0.00;60892.56;4868700;28;19921;-86
2022/05/04 05:06:12;;;;;;;;;;;;;;;-145.06;0.00;60892.56;4854465;28;19917;-88
2022/05/04 05:08:51;;;;;;;;;;;;;;;-145.06;0.00;60892.56;4864216;28;19924;-87
2022/05/04 05:11:30;;;;;;;;;;;;;;;-145.06;0.00;60892.56;4869829;28;19917;-87
2022/05/04 05:17:07;;;;;;;;;;;;;;;-145.06;0.00;60892.56;4862955;28;19917;-87
2022/05/04 05:19:46;;;;;;;;;;;;;;;-145.06;0.00;60892.56;4852172;28;19917;-88
2022/05/04 05:22:24;;;;;;;;;;;;;;;-145.06;0.00;60892.56;4860965;28;19917;-87
2022/05/04 05:25:04;;;;;;;;;;;;;;;-145.06;0.00;60892.56;4868964;28;20016;-86
2022/05/04 05:27:43;;;;;;;;;;;;;;;-145.06;0.00;60892.56;4848048;28;19921;-86
2022/05/04 05:30:22;;;;;;;;;;;;;;;-145.06;0.00;60892.56;4857095;28;19929;-86
2022/05/04 05:33:01;;;;;;;;;;;;;;;-145.06;0.00;60892.56;4852970;28;19918;-88
2022/05/04 05:35:40;;;;;;;;;;;;;;;-145.06;0.00;60892.56;4854371;28;19925;-86
2022/05/04 05:38:20;;;;;;;;;;;;;;;-145.06;0.00;60892.56;4860776;28;19925;-87
2022/05/04 05:41:01;;;;;;;;;;;;;;;-145.06;0.00;60892.56;4871337;28;19917;-87
2022/05/04 05:43:40;;;;;;;;;;;;;;;-145.06;0.00;60892.56;4871784;28;19947;-87
2022/05/04 05:46:18;;;;;;;;;;;;;;;-145.06;0.00;60892.56;4855983;28;19917;-87
2022/05/04 05:48:58;;;;;;;;;;;;;;;-145.06;0.00;60892.56;4870850;28;22072;-88
2022/05/04 05:51:37;;;;;;;;;;;;;;;-145.06;0.00;60892.56;4852583;28;19925;-88
2022/05/04 05:54:16;;;;;;;;;;;;;;;-145.06;0.00;60892.56;4863573;28;19921;-87
2022/05/04 05:56:54;;;;;;;;;;;;;;;-145.06;0.00;60892.56;4853882;28;19921;-88
2022/05/04 05:59:34;;;;;;;;;;;;;;;-145.06;0.00;60892.56;4862595;28;19925;-88
2022/05/04 06:02:13;;;;;;;;;;;;;;;-145.06;0.00;60892.56;4863193;28;19921;-88
2022/05/04 06:04:52;;;;;;;;;;;;;;;-145.06;0.00;60892.56;4862538;28;19922;-86
2022/05/04 06:07:31;;;;;;;;;;;;;;;-145.06;0.00;60892.56;4848582;28;19921;-86
2022/05/04 06:10:10;;;;;;;;;;;;;;;-145.06;0.00;60892.56;4850602;28;19925;-89
2022/05/04 06:12:48;;;;;;;;;;;;;;;-145.06;0.00;60892.56;4864010;28;20571;-87
2022/05/04 06:15:28;;;;;;;;;;;;;;;-145.06;0.00;60892.56;4862163;28;19925;-88
2022/05/04 06:18:07;;;;;;;;;;;;;;;-145.06;0.00;60892.56;4855067;28;19921;-87
2022/05/04 06:20:46;;;;;;;;;;;;;;;-145.06;0.00;60892.56;4868946;28;20267;-86
2022/05/04 06:23:25;;;;;;;;;;;;;;;-145.06;0.00;60892.56;4866042;28;20268;-87
2022/05/04 06:26:04;;;;;;;;;;;;;;;-145.06;0.00;60892.56;4854783;28;19917;-88
2022/05/04 06:28:43;;;;;;;;;;;;;;;-145.06;0.00;60892.56;4870449;28;19972;-88
2022/05/04 06:34:20;;;;;;;;;;;;;;;-145.06;0.00;60892.56;4861087;28;19917;-87
2022/05/04 06:37:00;;;;;;;;;;;;;;;-145.06;0.00;60892.56;4868009;28;19957;-88
2022/05/04 06:39:39;;;;;;;;;;;;;;;-145.06;0.00;60892.56;4861220;28;19960;-88
2022/05/04 06:42:18;;;;;;;;;;;;;;;-145.06;0.00;60892.56;4864573;28;20351;-87
2022/05/04 06:44:57;;;;;;;;;;;;;;;-145.06;0.00;60892.56;4850523;28;20328;-87
2022/05/04 06:47:36;;;;;;;;;;;;;;;-145.06;0.00;60892.56;4854379;28;19960;-87
2022/05/04 06:50:15;;;;;;;;;;;;;;;-145.06;0.00;60892.56;4854046;28;20498;-87
2022/05/04 06:52:54;;;;;;;;;;;;;;;-145.06;0.00;60892.56;4870996;28;19968;-88
2022/05/04 06:55:33;;;;;;;;;;;;;;;-145.06;0.00;60892.56;4854797;28;19968;-87
2022/05/04 06:58:12;;;;;;;;;;;;;;;-145.06;0.00;60892.56;4856686;28;19921;-88
2022/05/04 07:00:51;;;;;;;;;;;;;;;10.44;0.00;60892.56;4868358;28;19964;-87
2022/05/04 07:03:30;;;;;;;;;;;;;;;10.44;0.00;60892.56;4862354;28;19921;-89
2022/05/04 07:06:08;;;;;;;;;;;;;;;10.44;0.00;60892.56;4857362;28;19942;-87
2022/05/04 07:08:47;;;;;;;;;;;;;;;10.49;0.00;60892.56;4875771;28;19921;-87
2022/05/04 07:11:26;;;;;;;;;;;;;;;10.54;0.00;60892.56;4856497;28;19917;-88
2022/05/04 07:14:05;;;;;;;;;;;;;;;10.59;0.00;60892.56;4856964;28;19917;-87
2022/05/04 07:16:45;;;;;;;;;;;;;;;10.63;0.00;60892.56;4859931;28;19968;-87
2022/05/04 07:19:24;;;;;;;;;;;;;;;-145.06;0.00;60892.56;4866706;28;19921;-87
2022/05/04 07:22:03;;;;;;;;;;;;;;;-145.06;0.00;60892.56;4856555;28;19917;-88
2022/05/04 07:24:42;;;;;;;;;;;;;;;-145.06;0.00;60892.56;4858706;28;20327;-87
2022/05/04 07:27:21;;;;;;;;;;;;;;;-145.06;0.00;60892.56;4870583;28;19917;-89
2022/05/04 07:30:01;;;;;;;;;;;;;;;-145.06;0.00;60892.56;4852185;28;19921;-88
2022/05/04 07:32:40;;;;;;;;;;;;;;;-145.06;0.00;60892.56;4855179;28;19917;-88
2022/05/04 07:35:19;;;;;;;;;;;;;;;-145.06;0.00;60892.56;4871977;28;20255;-89
2022/05/04 07:37:58;;;;;;;;;;;;;;;-145.06;0.00;60892.56;4859553;28;19917;-88
2022/05/04 07:43:35;;;;;;;;;;;;;;;-145.06;0.00;60892.56;4862789;28;19921;-88
2022/05/04 07:46:14;;;;;;;;;;;;;;;-145.06;0.00;60892.56;4870048;28;19921;-88
2022/05/04 07:48:54;;;;;;;;;;;;;;;-145.06;0.00;60892.56;4868496;28;20366;-88
2022/05/04 07:51:33;;;;;;;;;;;;;;;-145.06;0.00;60892.56;4858422;28;19917;-88
2022/05/04 07:54:12;;;;;;;;;;;;;;;-145.06;0.00;60892.56;4849812;28;19918;-87
2022/05/04 07:56:52;;;;;;;;;;;;;;;-145.06;0.00;60892.56;4867534;28;20272;-88
2022/05/04 07:59:31;;;;;;;;;;;;;;;-145.06;0.00;60892.56;4862408;28;19921;-89
2022/05/04 08:05:10;;;;;;;;;;;;;;;-145.06;0.00;60892.56;4861455;28;19921;-87
2022/05/04 08:07:49;;;;;;;;;;;;;;;-145.06;0.00;60892.56;4853802;28;19925;-89
2022/05/04 08:10:28;;;;;;;;;;;;;;;-145.06;0.00;60892.56;4851031;28;19921;-87
2022/05/04 08:13:07;;;;;;;;;;;;;;;-145.06;0.00;60892.56;4864509;28;19917;-88
2022/05/04 08:15:46;;;;;;;;;;;;;;;-145.06;0.00;60892.56;4856877;28;19956;-88
2022/05/04 08:18:26;;;;;;;;;;;;;;;-145.06;0.00;60892.56;4862398;28;20371;-88
2022/05/04 08:21:07;;;;;;;;;;;;;;;-145.06;0.00;60892.56;4864138;28;19920;-88
2022/05/04 08:23:46;;;;;;;;;;;;;;;-145.06;0.00;60892.56;4860445;28;19917;-88
2022/05/04 08:26:25;;;;;;;;;;;;;;;-145.06;0.00;60892.56;4869264;28;19913;-88
2022/05/04 08:29:05;;;;;;;;;;;;;;;-145.06;0.00;60892.56;4863506;28;20386;-88
2022/05/04 08:31:45;;;;;;;;;;;;;;;-145.06;0.00;60892.56;4865755;28;20007;-90
2022/05/04 08:34:24;;;;;;;;;;;;;;;-145.06;0.00;60892.56;4870191;28;19917;-88
2022/05/04 08:37:03;;;;;;;;;;;;;;;-145.06;0.00;60892.56;4868909;28;19933;-90
2022/05/04 08:39:44;;;;;;;;;;;;;;;-145.06;0.00;60892.56;4879433;28;21787;-87
2022/05/04 08:42:23;;;;;;;;;;;;;;;-145.06;0.00;60892.56;4853912;28;19917;-88
2022/05/04 08:45:02;;;;;;;;;;;;;;;-145.06;0.00;60892.56;4879550;28;19996;-88
2022/05/04 08:47:42;;;;;;;;;;;;;;;-145.06;0.00;60892.56;4866714;28;19913;-88
2022/05/04 08:50:22;;;;;;;;;;;;;;;-145.06;0.00;60892.56;4855696;28;20354;-88
2022/05/04 08:53:02;;;;;;;;;;;;;;;13.04;0.00;60892.56;4859648;28;19917;-89
2022/05/04 08:55:43;;;;;;;;;;;;;;;13.06;0.00;60892.56;4867614;28;20011;-88
2022/05/04 08:58:22;;;;;;;;;;;;;;;13.16;0.00;60892.56;4880281;28;20251;-88
2022/05/04 09:01:02;;;;;;;;;;;;;;;13.20;0.00;60892.56;4863235;28;20011;-88
2022/05/04 09:03:41;;;;;;;;;;;;;;;-145.06;0.00;60892.56;4873497;28;19917;-88
2022/05/04 09:06:27;;;;;;;;;;;;;;;-145.06;0.00;60892.56;4867540;28;20385;-87
2022/05/04 09:09:10;;;;;;;;;;;;;;;-145.06;0.00;60892.56;4855409;28;19920;-87
2022/05/04 09:11:49;;;;;;;;;;;;;;;-145.06;0.00;60892.56;4849270;28;19921;-88
2022/05/04 09:14:35;;;;;;;;;;;;;;;-145.06;0.00;60892.56;4866290;28;20004;-89
2022/05/04 09:17:14;;;;;;;;;;;;;;;-145.06;0.00;60892.56;4868389;28;20622;-88
2022/05/04 09:22:54;;;;;;;;;;;;;;;-145.06;0.00;60892.56;4854836;28;19920;-88
2022/05/04 09:25:35;;;;;;;;;;;;;;;-145.06;0.00;60892.56;4853083;28;20000;-90
2022/05/04 09:28:15;;;;;;;;;;;;;;;-145.06;0.00;60892.56;4863203;28;19921;-89
2022/05/04 09:30:55;;;;;;;;;;;;;;;14.30;0.00;60892.56;4853236;28;19925;-88
2022/05/04 09:33:35;;;;;;;;;;;;;;;14.41;0.00;60892.56;4858270;28;19917;-87
2022/05/04 09:36:14;;;;;;;;;;;;;;;14.51;0.00;60892.56;4868183;28;19960;-88
2022/05/04 09:45:23;;;;;;;;;;;;;;;-145.06;0.00;60892.56;4852067;28;19917;-88
2022/05/04 09:48:02;;;;;;;;;;;;;;;-145.06;0.00;60892.56;4878870;28;19913;-88
2022/05/04 09:50:41;;;;;;;;;;;;;;;-145.06;0.00;60892.56;4880076;28;20247;-88
2022/05/04 09:53:25;;;;;;;;;;;;;;;-145.06;0.00;60892.56;4868437;28;20363;-88
2022/05/04 09:56:04;;;;;;;;;;;;;;;-145.06;0.00;60892.56;4877333;28;20268;-87
2022/05/04 09:58:43;;;;;;;;;;;;;;;-145.06;0.00;60892.56;4854657;28;19917;-87
2022/05/04 10:01:22;;;;;;;;;;;;;;;-145.06;0.00;60892.56;4868528;28;19917;-88
2022/05/04 10:04:03;;;;;;;;;;;;;;;15.61;0.00;60892.56;4873243;28;19912;-88
2022/05/04 10:06:44;;;;;;;;;;;;;;;-145.06;0.00;60892.56;4849772;28;20422;-88
2022/05/04 10:09:23;;;;;;;;;;;;;;;-145.06;0.00;60892.56;4879159;28;19917;-89
2022/05/04 10:12:02;;;;;;;;;;;;;;;-145.06;0.00;60892.56;4857055;28;19917;-88
2022/05/04 10:14:43;;;;;;;;;;;;;;;-145.06;0.00;60892.56;4854435;28;19913;-87
2022/05/04 10:17:23;;;;;;;;;;;;;;;-145.06;0.00;60892.56;4859168;28;20264;-87
2022/05/04 10:20:06;;;;;;;;;;;;;;;-145.06;0.00;60892.56;4869488;28;19913;-88
2022/05/04 10:22:57;;;;;;;;;;;;;;;-145.06;0.00;60892.56;4868522;28;19913;-88
2022/05/04 10:25:37;;;;;;;;;;;;;;;-145.06;0.00;60892.56;4857396;28;20391;-88
2022/05/04 10:28:17;;;;;;;;;;;;;;;-145.06;0.00;60892.56;4858369;28;19917;-87
2022/05/04 10:30:59;;;;;;;;;;;;;;;-145.06;0.00;60892.56;4866265;28;19913;-88
2022/05/04 10:33:38;;;;;;;;;;;;;;;-145.06;0.00;60892.56;4853091;28;20370;-88
2022/05/04 10:36:19;;;;;;;;;;;;;;;-145.06;0.00;60892.56;4855230;28;19921;-88
2022/05/04 10:38:59;;;;;;;;;;;;;;;-145.06;0.00;60892.56;4859702;28;19913;-88
2022/05/04 10:41:39;;;;;;;;;;;;;;;-145.06;0.00;60892.56;4856765;28;19913;-89
2022/05/04 10:44:18;;;;;;;;;;;;;;;-145.06;0.00;60892.56;4887206;28;19912;-87
2022/05/04 10:46:59;;;;;;;;;;;;;;;-145.06;0.00;60892.56;4855637;28;19925;-88
2022/05/04 10:49:39;;;;;;;;;;;;;;;-145.06;0.00;60892.56;4890106;28;20380;-89
2022/05/04 10:52:17;;;;;;;;;;;;;;;-145.06;0.00;60892.56;4869407;28;19913;-88
2022/05/04 10:54:56;;;;;;;;;;;;;;;-145.06;0.00;60892.56;4871258;28;19961;-88
2022/05/04 10:57:39;;;;;;;;;;;;;;;-145.06;0.00;60892.56;4856676;28;19913;-89
2022/05/04 11:00:20;;;;;;;;;;;;;;;-145.06;0.00;60892.56;4876803;28;20007;-88
2022/05/04 11:02:59;;;;;;;;;;;;;;;-145.06;0.00;60892.56;4880313;28;20263;-88
2022/05/04 11:05:47;;;;;;;;;;;;;;;-145.06;0.00;60892.56;4868539;28;19914;-88
2022/05/04 11:08:26;;;;;;;;;;;;;;;-145.06;0.00;60892.56;4856684;28;19921;-88
2022/05/04 11:11:05;;;;;;;;;;;;;;;-145.06;0.00;60892.56;4862763;28;19913;-88
2022/05/04 11:13:44;;;;;;;;;;;;;;;-145.06;0.00;60892.56;4856462;28;20000;-88
2022/05/04 11:16:24;;;;;;;;;;;;;;;-145.06;0.00;60892.56;4857116;28;19909;-88
2022/05/04 11:19:03;;;;;;;;;;;;;;;-145.06;0.00;60892.56;4856502;28;19917;-88
2022/05/04 11:21:43;;;;;;;;;;;;;;;-145.06;0.00;60892.56;4854272;28;19921;-88
2022/05/04 11:24:24;;;;;;;;;;;;;;;-145.06;0.00;60892.56;4875326;28;19913;-87
2022/05/04 11:27:04;;;;;;;;;;;;;;;-145.06;0.00;60892.56;4878345;28;20251;-88
2022/05/04 11:29:44;;;;;;;;;;;;;;;-145.06;0.00;60892.56;4881438;28;19924;-88
2022/05/04 11:32:23;;;;;;;;;;;;;;;-145.06;0.00;60892.56;4875682;28;20507;-88
2022/05/04 11:35:02;;;;;;;;;;;;;;;-145.06;0.00;60892.56;4870640;28;19917;-87
2022/05/04 11:37:41;;;;;;;;;;;;;;;18.27;0.00;60892.56;4870013;28;19913;-89
2022/05/04 11:40:20;;;;;;;;;;;;;;;18.40;0.00;60892.56;4857953;28;19917;-87
2022/05/04 11:42:59;;;;;;;;;;;;;;;-145.06;0.00;60892.56;4856228;28;19913;-88
2022/05/04 11:45:40;;;;;;;;;;;;;;;-145.06;0.00;60892.56;4856540;28;19913;-88
2022/05/04 11:48:19;;;;;;;;;;;;;;;-145.06;0.00;60892.56;4863088;28;19917;-88
2022/05/04 11:50:58;;;;;;;;;;;;;;;-145.06;0.00;60892.56;4850463;28;19913;-87
2022/05/04 11:53:37;;;;;;;;;;;;;;;-145.06;0.00;60892.56;4862396;28;19917;-88
2022/05/04 11:56:16;;;;;;;;;;;;;;;-145.06;0.00;60892.56;4855539;28;19921;-88
2022/05/04 11:58:55;;;;;;;;;;;;;;;-145.06;0.00;60892.56;4869270;28;19917;-88
2022/05/04 12:01:35;;;;;;;;;;;;;;;-145.06;0.00;60892.56;4866690;28;20394;-87
2022/05/04 12:04:15;;;;;;;;;;;;;;;-145.06;0.00;60892.56;4844665;28;20355;-89
2022/05/04 12:06:56;;;;;;;;;;;;;;;-145.06;0.00;60892.56;4856228;28;20409;-87
2022/05/04 12:09:34;;;;;;;;;;;;;;;-145.06;0.00;60892.56;4852596;28;19921;-88
2022/05/04 12:12:13;;;;;;;;;;;;;;;-145.06;0.00;60892.56;4859629;28;20750;-87
2022/05/04 12:14:53;;;;;;;;;;;;;;;-145.06;0.00;60892.56;4888158;28;19913;-88
2022/05/04 12:17:36;;;;;;;;;;;;;;;-145.06;0.00;60892.56;4860366;28;19960;-87
2022/05/04 12:20:18;;;;;;;;;;;;;;;-145.06;0.00;60892.56;4852079;28;19917;-88
2022/05/04 12:22:58;;;;;;;;;;;;;;;-145.06;0.00;60892.56;4867370;28;20513;-89
2022/05/04 12:25:38;;;;;;;;;;;;;;;-145.06;0.00;60892.56;4854845;28;19917;-87
2022/05/04 12:28:17;;;;;;;;;;;;;;;-145.06;0.00;60892.56;4855299;28;20310;-88
2022/05/04 12:33:56;;;;;;;;;;;;;;;-145.06;0.00;60892.56;4859800;28;19913;-88
2022/05/04 12:36:35;;;;;;;;;;;;;;;-145.06;0.00;60892.56;4847041;28;19918;-87
2022/05/04 12:39:13;;;;;;;;;;;;;;;-145.06;0.00;60892.56;4847812;28;19917;-87
2022/05/04 12:41:57;;;;;;;;;;;;;;;-145.06;0.00;60892.56;4854901;28;20016;-88
2022/05/04 12:44:35;;;;;;;;;;;;;;;-145.06;0.00;60892.56;4867817;28;19917;-88
2022/05/04 12:47:14;;;;;;;;;;;;;;;-145.06;0.00;60892.56;4859091;28;19926;-88
2022/05/04 12:49:53;;;;;;;;;;;;;;;-145.06;0.00;60892.56;4863768;28;20363;-87
2022/05/04 12:52:36;;;;;;;;;;;;;;;-145.06;0.00;60892.56;4861305;28;19969;-87
2022/05/04 12:55:16;;;;;;;;;;;;;;;-145.06;0.00;60892.56;4844321;28;20386;-88
2022/05/04 12:57:55;;;;;;;;;;;;;;;-145.06;0.00;60892.56;4870155;28;19917;-87
2022/05/04 13:00:34;;;;;;;;;;;;;;;-145.06;0.00;60892.56;4861091;28;20410;-88
2022/05/04 13:03:13;;;;;;;;;;;;;;;-145.06;0.00;60892.56;4854356;28;20363;-88
2022/05/04 13:05:52;;;;;;;;;;;;;;;-145.06;0.00;60892.56;4858439;28;19917;-86
2022/05/04 13:08:32;;;;;;;;;;;;;;;-145.06;0.00;60892.56;4854258;28;19962;-87
2022/05/04 13:11:10;;;;;;;;;;;;;;;-145.06;0.00;60892.56;4844153;28;20528;-88
2022/05/04 13:13:50;;;;;;;;;;;;;;;-145.06;0.00;60892.56;4869964;28;19917;-88
2022/05/04 13:16:29;;;;;;;;;;;;;;;-145.06;0.00;60892.56;4852044;28;19917;-87
2022/05/04 13:19:08;;;;;;;;;;;;;;;-145.06;0.00;60892.56;4855531;28;19917;-88
2022/05/04 13:21:47;;;;;;;;;;;;;;;-145.06;0.00;60892.56;4870655;28;19949;-87
2022/05/04 13:24:26;;;;;;;;;;;;;;;-145.06;0.00;60892.56;4860613;28;19953;-87
2022/05/04 13:27:05;;;;;;;;;;;;;;;-145.06;0.00;60892.56;4853597;28;19917;-87
2022/05/04 13:29:44;;;;;;;;;;;;;;;-145.06;0.00;60892.56;4869297;28;19925;-87
2022/05/04 13:32:23;;;;;;;;;;;;;;;-145.06;0.00;60892.56;4864991;28;19956;-87
2022/05/04 13:35:03;;;;;;;;;;;;;;;-145.06;0.00;60892.56;4866693;28;19921;-87
2022/05/04 13:37:42;;;;;;;;;;;;;;;-145.06;0.00;60892.56;4870326;28;20546;-88
2022/05/04 13:40:20;;;;;;;;;;;;;;;-145.06;0.00;60892.56;4868976;28;19921;-87
2022/05/04 13:43:06;;;;;;;;;;;;;;;-145.06;0.00;60892.56;4856661;28;19921;-90
2022/05/04 13:45:45;;;;;;;;;;;;;;;-145.06;0.00;60892.56;4861613;28;19964;-87
2022/05/04 13:48:24;;;;;;;;;;;;;;;-145.06;0.00;60892.56;4850317;28;19922;-88
2022/05/04 13:54:01;;;;;;;;;;;;;;;-145.06;0.00;60892.56;4864746;28;19916;-88
2022/05/04 13:56:40;;;;;;;;;;;;;;;-145.06;0.00;60892.56;4857031;28;19917;-87
2022/05/04 13:59:19;;;;;;;;;;;;;;;-145.06;0.00;60892.56;4857347;28;19913;-88
2022/05/04 14:01:58;;;;;;;;;;;;;;;-145.06;0.00;60892.56;4857740;28;19913;-87
2022/05/04 14:04:37;;;;;;;;;;;;;;;-145.06;0.00;60892.56;4860173;28;19913;-87
2022/05/04 14:07:16;;;;;;;;;;;;;;;-145.06;0.00;60892.56;4869519;28;19921;-87
2022/05/04 14:09:55;;;;;;;;;;;;;;;-145.06;0.00;60892.56;4872667;28;20011;-88
2022/05/04 14:12:34;;;;;;;;;;;;;;;-145.06;0.00;60892.56;4878549;28;19921;-88
2022/05/04 14:15:13;;;;;;;;;;;;;;;-145.06;0.00;60892.56;4856823;28;19917;-87
2022/05/04 14:17:52;;;;;;;;;;;;;;;-145.06;0.00;60892.56;4859961;28;19917;-87
2022/05/04 14:20:32;;;;;;;;;;;;;;;-145.06;0.00;60892.56;4862963;28;19913;-87
2022/05/04 14:23:11;;;;;;;;;;;;;;;-145.06;0.00;60892.56;4864562;28;19913;-87